sensor_id;sensor_type;location;lat;lon;timestamp;pressure;altitude;pressure_sealevel;temperature;humidity
12666;BME280;58531;59.050;17.416;2023-04-05T00:01:59;101956.34;;;-4.17;91.62
12666;BME280;58531;59.050;17.416;2023-04-05T00:04:26;101956.06;;;-4.07;90.44
12666;BME280;58531;59.050;17.416;2023-04-05T00:06:54;101955.91;;;-4.10;90.21
12666;BME280;58531;59.050;17.416;2023-04-05T00:09:21;101945.28;;;-4.22;90.33
12666;BME280;58531;59.050;17.416;2023-04-05T00:11:48;101941.28;;;-4.28;90.38
12666;BME280;58531;59.050;17.416;2023-04-05T00:14:15;101940.66;;;-4.34;90.62
12666;BME280;58531;59.050;17.416;2023-04-05T00:16:43;101943.81;;;-4.45;91.32
12666;BME280;58531;59.050;17.416;2023-04-05T00:19:10;101936.59;;;-4.57;92.11
12666;BME280;58531;59.050;17.416;2023-04-05T00:21:38;101942.41;;;-4.60;93.35
12666;BME280;58531;59.050;17.416;2023-04-05T00:24:06;101948.22;;;-4.63;94.01
12666;BME280;58531;59.050;17.416;2023-04-05T00:26:40;101945.59;;;-4.63;94.25
12666;BME280;58531;59.050;17.416;2023-04-05T00:29:08;101947.78;;;-4.56;94.60
12666;BME280;58531;59.050;17.416;2023-04-05T00:31:35;101943.47;;;-4.61;94.47
12666;BME280;58531;59.050;17.416;2023-04-05T00:34:03;101942.72;;;-4.61;94.67
12666;BME280;58531;59.050;17.416;2023-04-05T00:36:33;101943.59;;;-4.66;94.69
12666;BME280;58531;59.050;17.416;2023-04-05T00:39:01;101941.13;;;-4.70;95.06
12666;BME280;58531;59.050;17.416;2023-04-05T00:41:28;101938.38;;;-4.66;95.45
12666;BME280;58531;59.050;17.416;2023-04-05T00:43:55;101934.72;;;-4.65;95.43
12666;BME280;58531;59.050;17.416;2023-04-05T00:46:22;101945.13;;;-4.65;96.22
12666;BME280;58531;59.050;17.416;2023-04-05T00:48:48;101936.25;;;-4.64;96.17
12666;BME280;58531;59.050;17.416;2023-04-05T00:51:17;101940.25;;;-4.66;97.35
12666;BME280;58531;59.050;17.416;2023-04-05T00:53:44;101937.44;;;-4.69;97.96
12666;BME280;58531;59.050;17.416;2023-04-05T00:56:13;101934.97;;;-4.74;98.12
12666;BME280;58531;59.050;17.416;2023-04-05T00:58:41;101929.94;;;-4.71;99.51
12666;BME280;58531;59.050;17.416;2023-04-05T01:01:12;101927.81;;;-4.69;99.51
12666;BME280;58531;59.050;17.416;2023-04-05T01:03:44;101930.09;;;-4.76;99.05
12666;BME280;58531;59.050;17.416;2023-04-05T01:06:27;101937.59;;;-4.74;99.93
12666;BME280;58531;59.050;17.416;2023-04-05T01:09:02;101933.31;;;-4.70;100.00
12666;BME280;58531;59.050;17.416;2023-04-05T01:11:32;101920.88;;;-4.73;100.00
12666;BME280;58531;59.050;17.416;2023-04-05T01:14:00;101930.84;;;-4.75;100.00
12666;BME280;58531;59.050;17.416;2023-04-05T01:16:28;101924.75;;;-4.71;100.00
12666;BME280;58531;59.050;17.416;2023-04-05T01:18:55;101927.63;;;-4.72;100.00
12666;BME280;58531;59.050;17.416;2023-04-05T01:21:50;101927.63;;;-4.72;100.00
12666;BME280;58531;59.050;17.416;2023-04-05T01:24:30;101923.19;;;-4.72;100.00
12666;BME280;58531;59.050;17.416;2023-04-05T01:27:05;101912.78;;;-4.72;100.00
12666;BME280;58531;59.050;17.416;2023-04-05T01:29:48;101908.63;;;-4.73;100.00
12666;BME280;58531;59.050;17.416;2023-04-05T01:32:45;101913.97;;;-4.78;100.00
12666;BME280;58531;59.050;17.416;2023-04-05T01:35:20;101911.53;;;-4.74;100.00
12666;BME280;58531;59.050;17.416;2023-04-05T01:37:50;101913.06;;;-4.73;100.00
12666;BME280;58531;59.050;17.416;2023-04-05T01:40:19;101907.97;;;-4.78;100.00
12666;BME280;58531;59.050;17.416;2023-04-05T01:42:46;101909.06;;;-4.79;100.00
12666;BME280;58531;59.050;17.416;2023-04-05T01:45:14;101899.09;;;-4.77;100.00
12666;BME280;58531;59.050;17.416;2023-04-05T01:47:41;101895.91;;;-4.74;100.00
12666;BME280;58531;59.050;17.416;2023-04-05T01:50:08;101893.59;;;-4.76;100.00
12666;BME280;58531;59.050;17.416;2023-04-05T01:52:35;101892.34;;;-4.78;100.00
12666;BME280;58531;59.050;17.416;2023-04-05T01:55:02;101893.75;;;-4.81;100.00
12666;BME280;58531;59.050;17.416;2023-04-05T01:57:29;101903.53;;;-4.86;100.00
12666;BME280;58531;59.050;17.416;2023-04-05T01:59:56;101904.28;;;-4.86;100.00
12666;BME280;58531;59.050;17.416;2023-04-05T02:02:24;101898.78;;;-4.84;100.00
12666;BME280;58531;59.050;17.416;2023-04-05T02:04:51;101902.28;;;-4.89;100.00
12666;BME280;58531;59.050;17.416;2023-04-05T02:07:18;101900.00;;;-4.90;100.00
12666;BME280;58531;59.050;17.416;2023-04-05T02:09:44;101894.91;;;-4.95;100.00
12666;BME280;58531;59.050;17.416;2023-04-05T02:12:11;101893.50;;;-5.01;100.00
12666;BME280;58531;59.050;17.416;2023-04-05T02:14:38;101900.06;;;-5.04;100.00
12666;BME280;58531;59.050;17.416;2023-04-05T02:17:05;101902.63;;;-5.12;100.00
12666;BME280;58531;59.050;17.416;2023-04-05T02:19:33;101892.81;;;-5.15;100.00
12666;BME280;58531;59.050;17.416;2023-04-05T02:22:05;101884.19;;;-5.24;100.00
12666;BME280;58531;59.050;17.416;2023-04-05T02:24:32;101880.16;;;-5.30;100.00
12666;BME280;58531;59.050;17.416;2023-04-05T02:26:59;101879.84;;;-5.37;100.00
12666;BME280;58531;59.050;17.416;2023-04-05T02:29:26;101878.31;;;-5.38;100.00
12666;BME280;58531;59.050;17.416;2023-04-05T02:31:53;101882.00;;;-5.31;100.00
12666;BME280;58531;59.050;17.416;2023-04-05T02:34:20;101880.34;;;-5.27;100.00
12666;BME280;58531;59.050;17.416;2023-04-05T02:36:50;101870.22;;;-5.28;100.00
12666;BME280;58531;59.050;17.416;2023-04-05T02:39:17;101869.88;;;-5.35;100.00
12666;BME280;58531;59.050;17.416;2023-04-05T02:41:44;101871.22;;;-5.46;100.00
12666;BME280;58531;59.050;17.416;2023-04-05T02:44:11;101866.06;;;-5.60;100.00
12666;BME280;58531;59.050;17.416;2023-04-05T02:46:38;101875.13;;;-5.57;100.00
12666;BME280;58531;59.050;17.416;2023-04-05T02:49:05;101875.13;;;-5.57;100.00
12666;BME280;58531;59.050;17.416;2023-04-05T02:51:32;101867.72;;;-5.64;100.00
12666;BME280;58531;59.050;17.416;2023-04-05T02:54:01;101856.06;;;-5.66;100.00
12666;BME280;58531;59.050;17.416;2023-04-05T02:56:28;101858.19;;;-5.68;100.00
12666;BME280;58531;59.050;17.416;2023-04-05T02:58:55;101865.72;;;-5.67;100.00
12666;BME280;58531;59.050;17.416;2023-04-05T03:01:22;101866.91;;;-5.73;100.00
12666;BME280;58531;59.050;17.416;2023-04-05T03:03:49;101868.25;;;-5.75;100.00
12666;BME280;58531;59.050;17.416;2023-04-05T03:06:16;101869.31;;;-5.76;100.00
12666;BME280;58531;59.050;17.416;2023-04-05T03:08:45;101863.34;;;-5.77;100.00
12666;BME280;58531;59.050;17.416;2023-04-05T03:11:15;101861.84;;;-5.78;100.00
12666;BME280;58531;59.050;17.416;2023-04-05T03:13:42;101863.78;;;-5.83;100.00
12666;BME280;58531;59.050;17.416;2023-04-05T03:16:08;101856.69;;;-5.91;100.00
12666;BME280;58531;59.050;17.416;2023-04-05T03:18:37;101859.00;;;-5.89;100.00
12666;BME280;58531;59.050;17.416;2023-04-05T03:21:03;101860.25;;;-5.87;100.00
12666;BME280;58531;59.050;17.416;2023-04-05T03:23:30;101859.88;;;-5.94;100.00
12666;BME280;58531;59.050;17.416;2023-04-05T03:25:58;101857.75;;;-5.92;100.00
12666;BME280;58531;59.050;17.416;2023-04-05T03:28:26;101854.22;;;-5.96;100.00
12666;BME280;58531;59.050;17.416;2023-04-05T03:30:54;101849.97;;;-5.92;100.00
12666;BME280;58531;59.050;17.416;2023-04-05T03:33:20;101852.09;;;-5.94;100.00
12666;BME280;58531;59.050;17.416;2023-04-05T03:35:47;101856.22;;;-5.93;100.00
12666;BME280;58531;59.050;17.416;2023-04-05T03:38:14;101847.16;;;-5.95;100.00
12666;BME280;58531;59.050;17.416;2023-04-05T03:40:41;101842.38;;;-6.02;100.00
12666;BME280;58531;59.050;17.416;2023-04-05T03:43:08;101834.47;;;-5.97;100.00
12666;BME280;58531;59.050;17.416;2023-04-05T03:45:37;101843.81;;;-5.96;100.00
12666;BME280;58531;59.050;17.416;2023-04-05T03:48:04;101827.69;;;-5.84;100.00
12666;BME280;58531;59.050;17.416;2023-04-05T03:50:31;101845.41;;;-5.86;100.00
12666;BME280;58531;59.050;17.416;2023-04-05T03:52:58;101842.31;;;-5.88;100.00
12666;BME280;58531;59.050;17.416;2023-04-05T03:55:24;101835.00;;;-5.86;100.00
12666;BME280;58531;59.050;17.416;2023-04-05T03:57:52;101838.97;;;-5.89;100.00
12666;BME280;58531;59.050;17.416;2023-04-05T04:00:19;101831.34;;;-5.85;100.00
12666;BME280;58531;59.050;17.416;2023-04-05T04:02:49;101832.56;;;-5.83;100.00
12666;BME280;58531;59.050;17.416;2023-04-05T04:05:17;101838.44;;;-5.78;100.00
12666;BME280;58531;59.050;17.416;2023-04-05T04:07:45;101836.44;;;-5.72;100.00
12666;BME280;58531;59.050;17.416;2023-04-05T04:10:13;101835.06;;;-5.78;100.00
12666;BME280;58531;59.050;17.416;2023-04-05T04:12:42;101836.41;;;-5.80;100.00
12666;BME280;58531;59.050;17.416;2023-04-05T04:15:09;101835.50;;;-5.76;100.00
12666;BME280;58531;59.050;17.416;2023-04-05T04:17:36;101830.84;;;-5.66;100.00
12666;BME280;58531;59.050;17.416;2023-04-05T04:20:06;101831.94;;;-5.58;100.00
12666;BME280;58531;59.050;17.416;2023-04-05T04:22:35;101833.75;;;-5.59;100.00
12666;BME280;58531;59.050;17.416;2023-04-05T04:25:04;101831.34;;;-5.55;100.00
12666;BME280;58531;59.050;17.416;2023-04-05T04:27:34;101827.09;;;-5.51;100.00
12666;BME280;58531;59.050;17.416;2023-04-05T04:30:01;101832.78;;;-5.49;100.00
12666;BME280;58531;59.050;17.416;2023-04-05T04:32:29;101834.78;;;-5.46;100.00
12666;BME280;58531;59.050;17.416;2023-04-05T04:35:11;101838.44;;;-5.47;100.00
12666;BME280;58531;59.050;17.416;2023-04-05T04:37:43;101840.13;;;-5.43;100.00
12666;BME280;58531;59.050;17.416;2023-04-05T04:40:13;101836.94;;;-5.40;100.00
12666;BME280;58531;59.050;17.416;2023-04-05T04:42:41;101833.44;;;-5.35;100.00
12666;BME280;58531;59.050;17.416;2023-04-05T04:45:11;101835.91;;;-5.30;100.00
12666;BME280;58531;59.050;17.416;2023-04-05T04:47:40;101837.16;;;-5.28;100.00
12666;BME280;58531;59.050;17.416;2023-04-05T04:50:08;101843.34;;;-5.15;100.00
12666;BME280;58531;59.050;17.416;2023-04-05T04:52:37;101843.38;;;-5.07;100.00
12666;BME280;58531;59.050;17.416;2023-04-05T04:55:05;101837.16;;;-4.97;100.00
12666;BME280;58531;59.050;17.416;2023-04-05T04:57:32;101844.34;;;-4.94;100.00
12666;BME280;58531;59.050;17.416;2023-04-05T04:59:59;101847.13;;;-4.91;100.00
12666;BME280;58531;59.050;17.416;2023-04-05T05:02:26;101843.47;;;-4.81;100.00
12666;BME280;58531;59.050;17.416;2023-04-05T05:04:53;101848.72;;;-4.73;100.00
12666;BME280;58531;59.050;17.416;2023-04-05T05:07:20;101844.91;;;-4.59;100.00
12666;BME280;58531;59.050;17.416;2023-04-05T05:09:49;101838.97;;;-4.42;100.00
12666;BME280;58531;59.050;17.416;2023-04-05T05:12:20;101837.00;;;-4.28;100.00
12666;BME280;58531;59.050;17.416;2023-04-05T05:14:47;101842.19;;;-4.20;100.00
12666;BME280;58531;59.050;17.416;2023-04-05T05:17:13;101841.28;;;-4.07;100.00
12666;BME280;58531;59.050;17.416;2023-04-05T05:19:40;101838.53;;;-4.02;100.00
12666;BME280;58531;59.050;17.416;2023-04-05T05:22:07;101839.44;;;-3.98;100.00
12666;BME280;58531;59.050;17.416;2023-04-05T05:24:34;101834.84;;;-4.01;100.00
12666;BME280;58531;59.050;17.416;2023-04-05T05:27:03;101831.00;;;-4.03;100.00
12666;BME280;58531;59.050;17.416;2023-04-05T05:29:30;101841.44;;;-3.95;100.00
12666;BME280;58531;59.050;17.416;2023-04-05T05:31:57;101840.50;;;-3.82;100.00
12666;BME280;58531;59.050;17.416;2023-04-05T05:34:24;101828.06;;;-3.68;100.00
12666;BME280;58531;59.050;17.416;2023-04-05T05:36:53;101828.94;;;-3.47;100.00
12666;BME280;58531;59.050;17.416;2023-04-05T05:39:20;101829.78;;;-3.26;99.87
12666;BME280;58531;59.050;17.416;2023-04-05T05:41:48;101826.78;;;-2.99;99.07
12666;BME280;58531;59.050;17.416;2023-04-05T05:44:16;101831.25;;;-2.71;96.59
12666;BME280;58531;59.050;17.416;2023-04-05T05:46:43;101824.38;;;-2.55;95.25
12666;BME280;58531;59.050;17.416;2023-04-05T05:49:09;101831.41;;;-2.27;95.22
12666;BME280;58531;59.050;17.416;2023-04-05T05:51:36;101825.09;;;-2.05;92.15
12666;BME280;58531;59.050;17.416;2023-04-05T05:54:03;101830.56;;;-1.98;90.83
12666;BME280;58531;59.050;17.416;2023-04-05T05:56:30;101822.91;;;-1.83;90.81
12666;BME280;58531;59.050;17.416;2023-04-05T05:58:57;101823.34;;;-1.81;89.64
12666;BME280;58531;59.050;17.416;2023-04-05T06:01:25;101816.28;;;-1.68;89.82
12666;BME280;58531;59.050;17.416;2023-04-05T06:03:53;101820.75;;;-1.69;89.34
12666;BME280;58531;59.050;17.416;2023-04-05T06:06:21;101818.28;;;-1.53;89.07
12666;BME280;58531;59.050;17.416;2023-04-05T06:08:48;101816.09;;;-1.51;88.60
12666;BME280;58531;59.050;17.416;2023-04-05T06:11:17;101821.91;;;-1.46;89.03
12666;BME280;58531;59.050;17.416;2023-04-05T06:13:44;101811.44;;;-1.46;88.40
12666;BME280;58531;59.050;17.416;2023-04-05T06:16:11;101804.66;;;-1.47;88.96
12666;BME280;58531;59.050;17.416;2023-04-05T06:18:39;101800.53;;;-1.36;87.46
12666;BME280;58531;59.050;17.416;2023-04-05T06:21:06;101799.69;;;-1.28;87.68
12666;BME280;58531;59.050;17.416;2023-04-05T06:23:32;101798.66;;;-1.35;87.62
12666;BME280;58531;59.050;17.416;2023-04-05T06:25:59;101799.69;;;-1.28;87.80
12666;BME280;58531;59.050;17.416;2023-04-05T06:28:26;101797.25;;;-1.33;87.33
12666;BME280;58531;59.050;17.416;2023-04-05T06:30:54;101788.41;;;-1.28;87.83
12666;BME280;58531;59.050;17.416;2023-04-05T06:33:21;101790.81;;;-1.35;87.34
12666;BME280;58531;59.050;17.416;2023-04-05T06:35:49;101786.56;;;-1.28;88.16
12666;BME280;58531;59.050;17.416;2023-04-05T06:38:16;101783.28;;;-1.13;88.08
12666;BME280;58531;59.050;17.416;2023-04-05T06:40:43;101778.25;;;-1.06;86.65
12666;BME280;58531;59.050;17.416;2023-04-05T06:43:09;101781.75;;;-1.02;86.25
12666;BME280;58531;59.050;17.416;2023-04-05T06:45:36;101780.00;;;-0.86;85.82
12666;BME280;58531;59.050;17.416;2023-04-05T06:48:03;101780.63;;;-0.65;85.38
12666;BME280;58531;59.050;17.416;2023-04-05T06:50:30;101777.31;;;-0.50;83.69
12666;BME280;58531;59.050;17.416;2023-04-05T06:52:59;101777.41;;;-0.47;83.19
12666;BME280;58531;59.050;17.416;2023-04-05T06:55:26;101774.97;;;-0.40;83.03
12666;BME280;58531;59.050;17.416;2023-04-05T06:57:53;101783.84;;;-0.05;82.07
12666;BME280;58531;59.050;17.416;2023-04-05T07:00:20;101783.81;;;0.22;79.56
12666;BME280;58531;59.050;17.416;2023-04-05T07:02:47;101781.44;;;0.17;79.01
12666;BME280;58531;59.050;17.416;2023-04-05T07:05:14;101773.81;;;0.28;79.36
12666;BME280;58531;59.050;17.416;2023-04-05T07:07:42;101782.84;;;0.15;79.40
12666;BME280;58531;59.050;17.416;2023-04-05T07:10:11;101786.44;;;0.22;80.10
12666;BME280;58531;59.050;17.416;2023-04-05T07:12:38;101786.19;;;0.27;79.63
12666;BME280;58531;59.050;17.416;2023-04-05T07:15:06;101774.16;;;0.26;79.70
12666;BME280;58531;59.050;17.416;2023-04-05T07:17:33;101780.09;;;0.23;79.86
12666;BME280;58531;59.050;17.416;2023-04-05T07:20:00;101775.44;;;0.32;79.30
12666;BME280;58531;59.050;17.416;2023-04-05T07:22:30;101778.47;;;0.34;79.95
12666;BME280;58531;59.050;17.416;2023-04-05T07:24:57;101779.94;;;0.32;79.28
12666;BME280;58531;59.050;17.416;2023-04-05T07:27:25;101779.75;;;0.40;79.15
12666;BME280;58531;59.050;17.416;2023-04-05T07:29:52;101783.59;;;0.43;77.63
12666;BME280;58531;59.050;17.416;2023-04-05T07:32:19;101775.19;;;0.37;78.22
12666;BME280;58531;59.050;17.416;2023-04-05T07:34:46;101784.28;;;0.40;77.66
12666;BME280;58531;59.050;17.416;2023-04-05T07:37:13;101774.25;;;0.61;77.08
12666;BME280;58531;59.050;17.416;2023-04-05T07:39:39;101784.09;;;0.79;76.67
12666;BME280;58531;59.050;17.416;2023-04-05T08:12:45;101771.50;;;2.14;67.77
12666;BME280;58531;59.050;17.416;2023-04-05T08:15:12;101771.88;;;1.74;68.70
12666;BME280;58531;59.050;17.416;2023-04-05T08:17:39;101759.81;;;1.92;68.61
12666;BME280;58531;59.050;17.416;2023-04-05T08:23:27;101773.34;;;1.53;66.25
12666;BME280;58531;59.050;17.416;2023-04-05T08:25:54;101759.72;;;1.32;67.10
12666;BME280;58531;59.050;17.416;2023-04-05T08:28:22;101764.25;;;1.31;67.48
12666;BME280;58531;59.050;17.416;2023-04-05T08:30:52;101755.72;;;1.19;67.98
12666;BME280;58531;59.050;17.416;2023-04-05T08:33:22;101758.34;;;1.19;67.41
12666;BME280;58531;59.050;17.416;2023-04-05T08:35:50;101752.34;;;1.03;68.61
12666;BME280;58531;59.050;17.416;2023-04-05T08:38:17;101753.13;;;0.88;69.34
12666;BME280;58531;59.050;17.416;2023-04-05T08:40:45;101748.88;;;0.99;69.42
12666;BME280;58531;59.050;17.416;2023-04-05T08:43:16;101752.00;;;1.05;70.76
12666;BME280;58531;59.050;17.416;2023-04-05T08:45:49;101743.84;;;1.10;69.02
12666;BME280;58531;59.050;17.416;2023-04-05T08:48:17;101752.66;;;1.17;70.51
12666;BME280;58531;59.050;17.416;2023-04-05T08:50:49;101757.50;;;1.15;68.39
12666;BME280;58531;59.050;17.416;2023-04-05T08:53:16;101753.00;;;1.15;69.08
12666;BME280;58531;59.050;17.416;2023-04-05T08:55:45;101749.34;;;1.20;69.75
12666;BME280;58531;59.050;17.416;2023-04-05T08:58:14;101739.78;;;1.31;68.14
12666;BME280;58531;59.050;17.416;2023-04-05T09:00:42;101747.25;;;1.29;68.36
12666;BME280;58531;59.050;17.416;2023-04-05T09:03:15;101749.66;;;1.18;68.55
12666;BME280;58531;59.050;17.416;2023-04-05T09:05:45;101748.50;;;1.16;68.83
12666;BME280;58531;59.050;17.416;2023-04-05T09:08:12;101749.34;;;1.05;68.75
12666;BME280;58531;59.050;17.416;2023-04-05T09:10:40;101741.56;;;1.08;70.78
12666;BME280;58531;59.050;17.416;2023-04-05T09:13:07;101736.31;;;1.08;70.33
12666;BME280;58531;59.050;17.416;2023-04-05T09:15:35;101733.94;;;1.03;69.48
12666;BME280;58531;59.050;17.416;2023-04-05T09:18:02;101726.03;;;1.03;69.21
12666;BME280;58531;59.050;17.416;2023-04-05T09:20:30;101731.19;;;1.15;70.22
12666;BME280;58531;59.050;17.416;2023-04-05T09:22:57;101731.09;;;1.12;70.06
12666;BME280;58531;59.050;17.416;2023-04-05T09:25:35;101728.41;;;1.08;70.01
12666;BME280;58531;59.050;17.416;2023-04-05T09:28:03;101729.03;;;1.20;70.12
12666;BME280;58531;59.050;17.416;2023-04-05T09:30:31;101720.25;;;1.32;70.22
12666;BME280;58531;59.050;17.416;2023-04-05T09:32:59;101714.19;;;1.66;69.37
12666;BME280;58531;59.050;17.416;2023-04-05T09:35:27;101715.53;;;1.79;67.54
12666;BME280;58531;59.050;17.416;2023-04-05T09:37:56;101716.91;;;1.92;66.88
12666;BME280;58531;59.050;17.416;2023-04-05T09:40:24;101718.22;;;2.24;65.51
12666;BME280;58531;59.050;17.416;2023-04-05T09:43:05;101716.09;;;2.32;65.05
12666;BME280;58531;59.050;17.416;2023-04-05T09:45:37;101713.53;;;2.58;65.02
12666;BME280;58531;59.050;17.416;2023-04-05T09:48:04;101710.59;;;2.63;63.22
12666;BME280;58531;59.050;17.416;2023-04-05T09:50:31;101708.94;;;2.81;62.40
12666;BME280;58531;59.050;17.416;2023-04-05T09:53:08;101723.34;;;2.61;62.56
12666;BME280;58531;59.050;17.416;2023-04-05T09:55:35;101720.50;;;2.47;63.77
12666;BME280;58531;59.050;17.416;2023-04-05T09:58:02;101722.19;;;2.36;63.48
12666;BME280;58531;59.050;17.416;2023-04-05T10:00:29;101710.31;;;2.01;63.27
12666;BME280;58531;59.050;17.416;2023-04-05T10:02:56;101715.59;;;2.01;64.15
12666;BME280;58531;59.050;17.416;2023-04-05T10:05:25;101705.84;;;2.05;64.23
12666;BME280;58531;59.050;17.416;2023-04-05T10:07:54;101707.03;;;2.30;63.92
12666;BME280;58531;59.050;17.416;2023-04-05T10:10:22;101715.44;;;2.61;63.59
12666;BME280;58531;59.050;17.416;2023-04-05T10:12:50;101709.72;;;2.33;64.19
12666;BME280;58531;59.050;17.416;2023-04-05T10:15:19;101707.69;;;2.24;65.07
12666;BME280;58531;59.050;17.416;2023-04-05T10:17:47;101714.38;;;2.40;64.86
12666;BME280;58531;59.050;17.416;2023-04-05T10:20:16;101702.22;;;2.35;64.43
12666;BME280;58531;59.050;17.416;2023-04-05T10:22:56;101705.16;;;2.08;65.66
12666;BME280;58531;59.050;17.416;2023-04-05T10:25:38;101703.41;;;2.16;66.15
12666;BME280;58531;59.050;17.416;2023-04-05T10:28:10;101704.53;;;2.15;65.51
12666;BME280;58531;59.050;17.416;2023-04-05T10:30:40;101708.50;;;2.28;65.63
12666;BME280;58531;59.050;17.416;2023-04-05T10:33:15;101715.75;;;2.12;65.66
12666;BME280;58531;59.050;17.416;2023-04-05T10:35:53;101709.66;;;2.08;65.51
12666;BME280;58531;59.050;17.416;2023-04-05T10:38:24;101704.13;;;2.13;64.33
12666;BME280;58531;59.050;17.416;2023-04-05T10:40:56;101714.16;;;2.29;64.05
12666;BME280;58531;59.050;17.416;2023-04-05T10:43:28;101714.47;;;2.73;63.95
12666;BME280;58531;59.050;17.416;2023-04-05T10:45:58;101719.97;;;2.38;64.21
12666;BME280;58531;59.050;17.416;2023-04-05T10:48:33;101710.41;;;2.08;66.15
12666;BME280;58531;59.050;17.416;2023-04-05T10:51:02;101715.00;;;2.11;67.40
12666;BME280;58531;59.050;17.416;2023-04-05T10:53:30;101717.56;;;2.30;67.71
12666;BME280;58531;59.050;17.416;2023-04-05T10:56:00;101712.19;;;2.23;68.90
12666;BME280;58531;59.050;17.416;2023-04-05T10:58:28;101708.59;;;2.34;66.79
12666;BME280;58531;59.050;17.416;2023-04-05T11:00:56;101711.44;;;2.45;67.42
12666;BME280;58531;59.050;17.416;2023-04-05T11:03:46;101713.66;;;2.21;68.06
12666;BME280;58531;59.050;17.416;2023-04-05T11:06:21;101709.59;;;2.04;70.45
12666;BME280;58531;59.050;17.416;2023-04-05T11:08:51;101712.34;;;1.89;71.47
12666;BME280;58531;59.050;17.416;2023-04-05T11:11:21;101716.16;;;1.91;73.08
12666;BME280;58531;59.050;17.416;2023-04-05T11:13:50;101707.56;;;1.94;73.70
12666;BME280;58531;59.050;17.416;2023-04-05T11:16:17;101703.75;;;1.92;75.92
12666;BME280;58531;59.050;17.416;2023-04-05T11:18:45;101709.00;;;1.92;78.35
12666;BME280;58531;59.050;17.416;2023-04-05T11:21:20;101709.88;;;1.77;80.72
12666;BME280;58531;59.050;17.416;2023-04-05T11:24:02;101711.88;;;1.64;82.73
12666;BME280;58531;59.050;17.416;2023-04-05T11:26:32;101713.41;;;1.65;85.67
12666;BME280;58531;59.050;17.416;2023-04-05T11:28:59;101718.63;;;1.62;87.76
12666;BME280;58531;59.050;17.416;2023-04-05T11:31:26;101717.66;;;1.70;89.13
12666;BME280;58531;59.050;17.416;2023-04-05T11:33:55;101721.53;;;1.57;91.17
12666;BME280;58531;59.050;17.416;2023-04-05T11:36:31;101718.06;;;1.53;92.09
12666;BME280;58531;59.050;17.416;2023-04-05T11:39:23;101720.81;;;1.41;93.45
12666;BME280;58531;59.050;17.416;2023-04-05T11:41:58;101725.41;;;1.44;94.88
12666;BME280;58531;59.050;17.416;2023-04-05T11:44:26;101730.66;;;1.63;94.39
12666;BME280;58531;59.050;17.416;2023-04-05T11:46:53;101717.78;;;1.39;96.42
12666;BME280;58531;59.050;17.416;2023-04-05T11:49:21;101726.63;;;1.31;97.20
12666;BME280;58531;59.050;17.416;2023-04-05T11:51:49;101720.50;;;1.42;97.55
12666;BME280;58531;59.050;17.416;2023-04-05T11:54:30;101722.56;;;1.33;97.99
12666;BME280;58531;59.050;17.416;2023-04-05T11:56:58;101719.16;;;1.33;98.72
12666;BME280;58531;59.050;17.416;2023-04-05T11:59:30;101724.34;;;1.29;99.28
12666;BME280;58531;59.050;17.416;2023-04-05T12:01:58;101723.44;;;1.41;99.46
12666;BME280;58531;59.050;17.416;2023-04-05T12:04:25;101723.31;;;1.34;99.40
12666;BME280;58531;59.050;17.416;2023-04-05T12:07:07;101716.41;;;1.26;100.00
12666;BME280;58531;59.050;17.416;2023-04-05T12:09:33;101719.16;;;1.14;100.00
12666;BME280;58531;59.050;17.416;2023-04-05T12:12:02;101718.84;;;1.00;100.00
12666;BME280;58531;59.050;17.416;2023-04-05T12:14:31;101717.50;;;1.25;100.00
12666;BME280;58531;59.050;17.416;2023-04-05T12:16:58;101710.41;;;1.10;100.00
12666;BME280;58531;59.050;17.416;2023-04-05T12:19:28;101716.56;;;0.99;100.00
12666;BME280;58531;59.050;17.416;2023-04-05T12:21:56;101709.94;;;0.89;100.00
12666;BME280;58531;59.050;17.416;2023-04-05T12:24:23;101710.22;;;0.84;100.00
12666;BME280;58531;59.050;17.416;2023-04-05T12:26:51;101716.47;;;0.95;100.00
12666;BME280;58531;59.050;17.416;2023-04-05T12:29:20;101716.09;;;0.78;100.00
12666;BME280;58531;59.050;17.416;2023-04-05T12:31:49;101711.56;;;0.78;100.00
12666;BME280;58531;59.050;17.416;2023-04-05T12:34:23;101707.47;;;0.96;100.00
12666;BME280;58531;59.050;17.416;2023-04-05T12:36:51;101705.13;;;0.91;100.00
12666;BME280;58531;59.050;17.416;2023-04-05T12:39:20;101706.03;;;0.99;100.00
12666;BME280;58531;59.050;17.416;2023-04-05T12:41:55;101702.84;;;1.09;100.00
12666;BME280;58531;59.050;17.416;2023-04-05T12:44:29;101701.53;;;0.99;100.00
12666;BME280;58531;59.050;17.416;2023-04-05T12:46:59;101707.94;;;1.17;100.00
12666;BME280;58531;59.050;17.416;2023-04-05T12:49:27;101704.13;;;1.14;100.00
12666;BME280;58531;59.050;17.416;2023-04-05T12:51:59;101705.63;;;1.15;100.00
12666;BME280;58531;59.050;17.416;2023-04-05T12:54:27;101695.13;;;1.34;100.00
12666;BME280;58531;59.050;17.416;2023-04-05T12:56:55;101684.91;;;1.48;100.00
12666;BME280;58531;59.050;17.416;2023-04-05T12:59:23;101689.00;;;1.68;100.00
12666;BME280;58531;59.050;17.416;2023-04-05T13:01:51;101690.34;;;1.78;100.00
12666;BME280;58531;59.050;17.416;2023-04-05T13:04:17;101694.19;;;1.84;100.00
12666;BME280;58531;59.050;17.416;2023-04-05T13:06:44;101684.47;;;1.88;100.00
12666;BME280;58531;59.050;17.416;2023-04-05T13:09:11;101680.50;;;1.75;100.00
12666;BME280;58531;59.050;17.416;2023-04-05T13:11:38;101675.34;;;1.82;100.00
12666;BME280;58531;59.050;17.416;2023-04-05T13:14:05;101686.50;;;1.94;100.00
12666;BME280;58531;59.050;17.416;2023-04-05T13:16:32;101678.00;;;2.27;100.00
12666;BME280;58531;59.050;17.416;2023-04-05T13:19:01;101671.78;;;1.93;99.65
12666;BME280;58531;59.050;17.416;2023-04-05T13:21:27;101669.06;;;1.67;100.00
12666;BME280;58531;59.050;17.416;2023-04-05T13:23:55;101662.91;;;1.60;100.00